createdAt,value
2023-03-11T00:00:23.573Z,100.00
2023-03-11T00:02:51.835Z,100.00
2023-03-11T00:05:22.414Z,99.59
2023-03-11T00:07:51.908Z,98.88
2023-03-11T00:10:20.557Z,94.64
2023-03-11T00:12:47.382Z,94.73
2023-03-11T00:15:17.003Z,94.27
2023-03-11T00:17:44.781Z,93.53
2023-03-11T00:20:48.036Z,93.78
2023-03-11T00:23:17.247Z,92.34
2023-03-11T00:25:46.028Z,92.69
2023-03-11T00:28:16.837Z,91.23
2023-03-11T00:30:47.275Z,95.82
2023-03-11T00:33:15.358Z,91.81
2023-03-11T00:35:42.689Z,93.27
2023-03-11T00:38:11.781Z,93.87
2023-03-11T00:40:40.587Z,95.38
2023-03-11T00:43:09.013Z,92.29
2023-03-11T00:45:35.513Z,93.96
2023-03-11T00:48:04.460Z,93.45
2023-03-11T00:50:33.064Z,93.68
2023-03-11T00:53:00.497Z,94.11
2023-03-11T00:55:30.144Z,93.16
2023-03-11T00:58:00.328Z,93.92
2023-03-11T01:00:29.236Z,91.42
2023-03-11T01:02:56.216Z,93.12
2023-03-11T01:05:25.812Z,92.67
2023-03-11T01:07:54.256Z,93.74
2023-03-11T01:10:23.653Z,92.52
2023-03-11T01:12:53.589Z,91.80
2023-03-11T01:15:24.516Z,92.48
2023-03-11T01:17:52.065Z,90.93
2023-03-11T01:20:26.136Z,91.71
2023-03-11T01:22:54.027Z,91.36
2023-03-11T01:25:22.078Z,89.29
2023-03-11T01:27:49.604Z,91.59
2023-03-11T01:30:18.120Z,92.06
2023-03-11T01:32:47.300Z,92.05
2023-03-11T01:35:15.172Z,89.75
2023-03-11T01:37:42.099Z,92.22
2023-03-11T01:40:15.934Z,91.04
2023-03-11T01:42:42.569Z,91.32
2023-03-11T01:45:19.725Z,87.57
2023-03-11T01:47:47.218Z,90.55
2023-03-11T01:50:14.161Z,89.35
2023-03-11T01:52:42.771Z,88.77
2023-03-11T01:55:12.742Z,92.82
2023-03-11T01:57:40.772Z,88.81
2023-03-11T02:00:10.660Z,91.13
2023-03-11T02:02:47.733Z,92.03
2023-03-11T02:05:15.642Z,92.58
2023-03-11T02:07:43.539Z,92.32
2023-03-11T02:10:12.534Z,92.25
2023-03-11T02:12:40.820Z,91.75
2023-03-11T02:15:08.645Z,89.55
2023-03-11T02:17:37.725Z,90.02
2023-03-11T02:20:15.244Z,90.22
2023-03-11T02:22:44.893Z,91.31
2023-03-11T02:25:15.128Z,93.58
2023-03-11T02:27:49.437Z,92.31
2023-03-11T02:30:17.174Z,93.05
2023-03-11T02:32:44.871Z,92.58
2023-03-11T02:35:11.823Z,89.80
2023-03-11T02:37:43.649Z,87.20
2023-03-11T02:40:23.341Z,89.27
2023-03-11T02:43:02.405Z,88.35
2023-03-11T02:45:30.913Z,87.51
2023-03-11T02:47:59.468Z,89.57
2023-03-11T02:50:30.292Z,88.00
2023-03-11T02:52:58.909Z,91.36
2023-03-11T02:55:27.725Z,91.27
2023-03-11T02:57:54.445Z,91.78
2023-03-11T03:00:21.935Z,91.41
2023-03-11T03:03:08.963Z,90.18
2023-03-11T03:05:37.840Z,92.89
2023-03-11T03:08:04.501Z,92.45
2023-03-11T03:10:32.293Z,87.46
2023-03-11T03:12:59.331Z,88.27
2023-03-11T03:15:27.773Z,91.40
2023-03-11T03:17:56.552Z,89.34
2023-03-11T03:20:23.675Z,89.22
2023-03-11T03:22:50.400Z,92.03
2023-03-11T03:25:21.321Z,89.63
2023-03-11T03:27:48.130Z,92.45
2023-03-11T03:30:16.529Z,90.48
2023-03-11T03:32:44.600Z,90.58
2023-03-11T03:35:14.896Z,85.88
2023-03-11T03:37:42.918Z,88.67
2023-03-11T03:40:10.020Z,89.36
2023-03-11T03:42:38.933Z,88.35
2023-03-11T03:45:07.710Z,88.00
2023-03-11T03:47:34.949Z,85.73
2023-03-11T03:50:04.415Z,82.67
2023-03-11T03:52:32.566Z,82.66
2023-03-11T03:55:01.925Z,80.95
2023-03-11T03:57:29.168Z,79.39
2023-03-11T03:59:55.701Z,81.26
2023-03-11T04:02:23.605Z,79.76
2023-03-11T04:04:50.988Z,80.31
2023-03-11T04:07:23.035Z,83.35
2023-03-11T04:09:50.343Z,83.74
2023-03-11T04:12:17.742Z,86.69
2023-03-11T04:14:46.117Z,87.55
2023-03-11T04:17:13.933Z,86.92
2023-03-11T04:19:42.334Z,86.74
2023-03-11T04:22:11.075Z,84.84
2023-03-11T04:24:37.870Z,85.37
2023-03-11T04:27:06.271Z,86.14
2023-03-11T04:29:32.945Z,89.75
2023-03-11T04:32:00.790Z,86.52
2023-03-11T04:34:28.970Z,84.37
2023-03-11T04:36:58.503Z,82.83
2023-03-11T04:39:25.476Z,80.67
2023-03-11T04:41:52.969Z,78.48
2023-03-11T04:44:19.713Z,78.94
2023-03-11T04:46:47.931Z,79.88
2023-03-11T04:49:15.853Z,77.02
2023-03-11T04:51:43.210Z,77.14
2023-03-11T04:54:10.123Z,79.23
2023-03-11T04:56:37.503Z,81.72
2023-03-11T04:59:04.653Z,82.18
2023-03-11T05:01:35.998Z,83.22
2023-03-11T05:04:05.307Z,83.33
2023-03-11T05:06:33.192Z,83.23
2023-03-11T05:08:59.925Z,82.71
2023-03-11T05:11:26.709Z,82.17
2023-03-11T05:13:53.242Z,82.54
2023-03-11T05:16:19.756Z,78.96
2023-03-11T05:18:46.454Z,77.85
2023-03-11T05:21:14.698Z,77.82
2023-03-11T05:23:42.665Z,79.46
2023-03-11T05:26:09.457Z,77.06
2023-03-11T05:28:36.276Z,77.99
2023-03-11T05:31:04.052Z,77.87
2023-03-11T05:33:35.530Z,77.11
2023-03-11T05:36:07.562Z,78.36
2023-03-11T05:38:39.562Z,77.34
2023-03-11T05:41:08.485Z,77.10
2023-03-11T05:43:35.653Z,75.23
2023-03-11T05:46:02.570Z,72.89
2023-03-11T05:48:29.848Z,71.64
2023-03-11T05:50:56.391Z,70.98
2023-03-11T05:53:23.619Z,70.25
2023-03-11T05:56:00.658Z,71.81
2023-03-11T05:58:27.782Z,70.36
2023-03-11T06:00:54.506Z,70.46
2023-03-11T06:03:21.361Z,75.78
2023-03-11T06:05:48.279Z,73.18
2023-03-11T06:08:15.570Z,72.48
2023-03-11T06:10:42.803Z,74.48
2023-03-11T06:13:10.196Z,73.44
2023-03-11T06:15:38.551Z,73.33
2023-03-11T06:18:08.012Z,71.29
2023-03-11T06:20:35.141Z,72.78
2023-03-11T06:23:03.074Z,74.41
2023-03-11T06:25:29.739Z,72.49
2023-03-11T06:27:59.018Z,72.50
2023-03-11T06:30:25.970Z,74.18
2023-03-11T06:32:55.378Z,72.44
2023-03-11T06:35:23.072Z,72.52
2023-03-11T06:37:49.782Z,73.07
2023-03-11T06:40:17.939Z,70.08
2023-03-11T06:42:47.042Z,69.91
2023-03-11T06:45:14.568Z,72.18
2023-03-11T06:47:43.488Z,71.62
2023-03-11T06:50:11.369Z,71.50
2023-03-11T06:52:45.850Z,71.55
2023-03-11T06:55:13.799Z,68.70
2023-03-11T06:57:41.026Z,69.46
2023-03-11T07:00:12.701Z,71.49
2023-03-11T07:02:41.846Z,71.79
2023-03-11T07:05:09.743Z,70.88
2023-03-11T07:07:37.275Z,70.07
2023-03-11T07:10:13.441Z,70.51
2023-03-11T07:12:40.289Z,69.88
2023-03-11T07:15:08.184Z,69.77
2023-03-11T07:17:35.928Z,74.06
2023-03-11T07:20:04.134Z,72.10
2023-03-11T07:22:31.018Z,72.69
2023-03-11T07:24:58.205Z,72.65
2023-03-11T07:27:24.898Z,72.70
2023-03-11T07:29:51.675Z,72.95
2023-03-11T07:32:19.163Z,73.71
2023-03-11T07:34:46.441Z,75.15
2023-03-11T07:37:14.535Z,74.14
2023-03-11T07:39:42.190Z,75.75
2023-03-11T07:42:09.329Z,77.20
2023-03-11T07:44:36.220Z,77.01
2023-03-11T07:47:04.414Z,76.87
2023-03-11T07:49:32.760Z,74.06
2023-03-11T07:51:59.603Z,70.51
2023-03-11T07:54:26.630Z,69.85
2023-03-11T07:56:54.049Z,70.04
2023-03-11T07:59:20.766Z,70.54
2023-03-11T08:01:47.456Z,71.58
2023-03-11T08:04:17.010Z,70.29
2023-03-11T08:06:45.949Z,69.89
2023-03-11T08:09:14.265Z,67.30
2023-03-11T08:11:41.295Z,65.35
2023-03-11T08:14:08.260Z,66.84
2023-03-11T08:16:35.144Z,67.74
2023-03-11T08:19:02.365Z,67.76
2023-03-11T08:21:31.980Z,68.65
2023-03-11T08:24:00.278Z,67.71
2023-03-11T08:26:27.717Z,66.53
2023-03-11T08:28:54.788Z,66.07
2023-03-11T08:31:24.154Z,68.22
2023-03-11T08:33:52.926Z,67.72
2023-03-11T08:36:20.313Z,69.38
2023-03-11T08:38:47.418Z,65.98
2023-03-11T08:41:15.151Z,66.37
2023-03-11T08:43:42.376Z,67.36
2023-03-11T08:46:10.717Z,66.88
2023-03-11T08:48:39.342Z,64.54
2023-03-11T08:51:10.337Z,65.17
2023-03-11T08:53:37.725Z,66.13
2023-03-11T08:56:04.808Z,65.09
2023-03-11T08:58:33.071Z,63.25
2023-03-11T09:01:00.013Z,63.62
2023-03-11T09:03:27.813Z,65.63
2023-03-11T09:06:04.751Z,65.13
2023-03-11T09:08:31.341Z,63.51
2023-03-11T09:10:57.857Z,62.60
2023-03-11T09:13:24.869Z,63.03
2023-03-11T09:15:52.178Z,63.36
2023-03-11T09:18:18.977Z,62.10
2023-03-11T09:20:47.018Z,61.66
2023-03-11T09:23:15.260Z,61.09
2023-03-11T09:25:42.235Z,62.00
2023-03-11T09:28:09.978Z,63.77
2023-03-11T09:30:39.421Z,62.29
2023-03-11T09:33:06.297Z,62.70
2023-03-11T09:35:33.213Z,61.48
2023-03-11T09:38:00.434Z,59.64
2023-03-11T09:40:29.219Z,58.98
2023-03-11T09:42:59.108Z,59.19
2023-03-11T09:45:29.343Z,57.78
2023-03-11T09:47:58.790Z,58.87
2023-03-11T09:50:44.388Z,59.59
2023-03-11T09:53:15.999Z,58.14
2023-03-11T09:55:47.974Z,57.40
2023-03-11T09:58:29.522Z,57.21
2023-03-11T10:00:56.903Z,57.47
2023-03-11T10:03:38.687Z,56.78
2023-03-11T10:06:24.689Z,56.22
2023-03-11T10:09:10.656Z,56.20
2023-03-11T10:11:57.080Z,55.75
2023-03-11T10:14:27.042Z,56.46
2023-03-11T10:16:53.877Z,56.61
2023-03-11T10:19:24.863Z,56.21
2023-03-11T10:22:12.425Z,56.68
2023-03-11T10:24:41.909Z,57.00
2023-03-11T10:27:17.256Z,56.75
2023-03-11T10:29:43.911Z,57.29
2023-03-11T10:32:16.921Z,56.57
2023-03-11T10:34:53.438Z,56.79
2023-03-11T10:37:49.146Z,56.61
2023-03-11T10:40:30.647Z,56.55
2023-03-11T10:42:58.712Z,56.88
2023-03-11T10:45:25.903Z,56.88
2023-03-11T10:47:52.332Z,56.25
2023-03-11T10:50:20.087Z,54.91
2023-03-11T10:53:04.832Z,55.37
2023-03-11T10:55:32.442Z,54.77
2023-03-11T10:58:07.047Z,56.81
2023-03-11T11:00:34.276Z,56.96
2023-03-11T11:03:04.230Z,56.59
2023-03-11T11:05:32.944Z,55.49
2023-03-11T11:08:20.439Z,54.69
2023-03-11T11:10:57.519Z,56.20
2023-03-11T11:13:25.845Z,56.27
2023-03-11T11:15:57.280Z,55.58
2023-03-11T11:18:26.370Z,55.55
2023-03-11T11:21:03.983Z,55.55
2023-03-11T11:23:35.952Z,55.93
2023-03-11T11:26:05.413Z,54.24
2023-03-11T11:28:33.509Z,54.09
2023-03-11T11:31:20.008Z,54.86
2023-03-11T11:33:52.407Z,52.90
2023-03-11T11:36:21.203Z,53.09
2023-03-11T11:38:48.999Z,53.10
2023-03-11T11:41:18.905Z,54.82
2023-03-11T11:43:51.570Z,53.59
2023-03-11T11:46:25.418Z,53.67
2023-03-11T11:49:07.438Z,51.88
2023-03-11T11:51:37.111Z,52.28
2023-03-11T11:54:24.938Z,52.06
2023-03-11T11:56:52.797Z,52.18
2023-03-11T11:59:22.102Z,52.97
2023-03-11T12:02:05.514Z,52.54
2023-03-11T12:04:43.877Z,53.35
2023-03-11T12:07:22.806Z,54.03
2023-03-11T12:09:50.217Z,53.82
2023-03-11T12:12:20.071Z,52.21
2023-03-11T12:14:47.139Z,52.80
2023-03-11T12:17:17.038Z,52.20
2023-03-11T12:19:48.476Z,51.60
2023-03-11T12:22:15.223Z,53.51
2023-03-11T12:25:00.437Z,52.41
2023-03-11T12:27:30.870Z,50.57
2023-03-11T12:30:04.012Z,52.21
2023-03-11T12:32:34.451Z,51.51
2023-03-11T12:35:04.929Z,51.34
2023-03-11T12:37:33.401Z,53.20
2023-03-11T12:40:00.902Z,52.57
2023-03-11T12:42:38.970Z,52.30
2023-03-11T12:45:25.323Z,51.09
2023-03-11T12:48:12.707Z,50.05
2023-03-11T12:50:42.013Z,49.09
2023-03-11T12:53:16.363Z,49.64
2023-03-11T12:56:01.332Z,51.31
2023-03-11T12:58:34.389Z,49.73
2023-03-11T13:01:24.311Z,49.85
2023-03-11T13:04:23.456Z,48.61
2023-03-11T13:07:08.870Z,49.31
2023-03-11T13:09:35.488Z,50.10
2023-03-11T13:12:02.325Z,48.69
2023-03-11T13:14:36.851Z,49.13
2023-03-11T13:17:39.223Z,49.13
2023-03-11T13:20:26.724Z,49.93
2023-03-11T13:22:53.493Z,50.68
2023-03-11T13:25:30.918Z,49.52
2023-03-11T13:28:20.827Z,49.39
2023-03-11T13:31:04.430Z,49.59
2023-03-11T13:33:57.759Z,48.88
2023-03-11T13:36:24.871Z,48.35
2023-03-11T13:39:11.659Z,49.26
2023-03-11T13:41:41.821Z,48.73
2023-03-11T13:44:14.374Z,49.24
2023-03-11T13:46:42.488Z,48.64
2023-03-11T13:49:18.967Z,48.83
2023-03-11T13:51:49.456Z,47.67
2023-03-11T13:54:18.577Z,48.31
2023-03-11T13:56:49.227Z,48.41
2023-03-11T13:59:23.254Z,48.38
2023-03-11T14:01:55.300Z,47.59
2023-03-11T14:04:29.915Z,48.56
2023-03-11T14:06:56.746Z,48.08
2023-03-11T14:09:24.534Z,47.99
2023-03-11T14:11:53.409Z,48.37
2023-03-11T14:14:31.128Z,48.80
2023-03-11T14:16:58.893Z,48.75
2023-03-11T14:19:27.596Z,48.79
2023-03-11T14:21:55.542Z,49.47
2023-03-11T14:24:31.896Z,49.12
2023-03-11T14:27:01.187Z,49.48
2023-03-11T14:29:35.836Z,48.57
2023-03-11T14:32:16.223Z,47.14
2023-03-11T14:34:43.181Z,47.77
2023-03-11T14:37:45.236Z,47.08
2023-03-11T14:40:24.285Z,49.12
2023-03-11T14:42:53.943Z,48.76
2023-03-11T14:45:22.535Z,47.99
2023-03-11T14:47:49.168Z,48.93
2023-03-11T14:50:17.894Z,49.93
2023-03-11T14:53:04.935Z,48.99
2023-03-11T14:55:35.048Z,47.41
2023-03-11T14:58:07.719Z,47.70
2023-03-11T15:00:36.713Z,49.37
2023-03-11T15:03:03.332Z,49.10
2023-03-11T15:05:48.609Z,49.04
2023-03-11T15:08:17.259Z,49.31
2023-03-11T15:11:04.268Z,48.26
2023-03-11T15:13:31.516Z,49.19
2023-03-11T15:15:59.855Z,49.48
2023-03-11T15:18:29.719Z,49.04
2023-03-11T15:21:16.305Z,48.96
2023-03-11T15:23:59.279Z,48.81
2023-03-11T15:26:29.750Z,49.65
2023-03-11T15:28:57.376Z,49.55
2023-03-11T15:31:23.774Z,48.98
2023-03-11T15:33:51.828Z,49.61
2023-03-11T15:36:32.716Z,49.08
2023-03-11T15:39:19.627Z,49.03
2023-03-11T15:42:04.756Z,48.81
2023-03-11T15:44:33.319Z,49.69
2023-03-11T15:47:00.798Z,48.55
2023-03-11T15:49:29.640Z,50.01
2023-03-11T15:52:03.185Z,50.28
2023-03-11T15:54:30.204Z,50.15
2023-03-11T15:56:58.537Z,50.18
2023-03-11T15:59:25.575Z,50.90
2023-03-11T16:01:52.466Z,59.98
2023-03-11T16:04:19.909Z,65.34
2023-03-11T16:06:56.507Z,66.45
2023-03-11T16:09:31.583Z,64.66
2023-03-11T16:11:58.093Z,62.89
2023-03-11T16:14:24.622Z,62.00
2023-03-11T16:16:51.064Z,62.76
2023-03-11T16:19:17.553Z,61.06
2023-03-11T16:21:46.800Z,60.89
2023-03-11T16:24:17.983Z,60.01
2023-03-11T16:26:44.799Z,58.50
2023-03-11T16:29:19.009Z,59.62
2023-03-11T16:31:46.279Z,61.10
2023-03-11T16:34:12.988Z,59.86
2023-03-11T16:36:40.330Z,58.68
2023-03-11T16:39:07.085Z,58.36
2023-03-11T16:41:41.024Z,57.57
2023-03-11T16:44:09.599Z,58.16
2023-03-11T16:46:36.466Z,59.01
2023-03-11T16:49:03.234Z,58.64
2023-03-11T16:51:29.951Z,59.71
2023-03-11T16:53:56.530Z,60.17
2023-03-11T16:56:23.019Z,61.13
2023-03-11T16:58:49.598Z,61.28
2023-03-11T17:01:21.591Z,61.60
2023-03-11T17:03:51.938Z,61.31
2023-03-11T17:06:19.449Z,59.80
2023-03-11T17:08:49.060Z,59.95
2023-03-11T17:11:20.122Z,61.83
2023-03-11T17:13:46.622Z,62.69
2023-03-11T17:16:13.497Z,62.36
2023-03-11T17:18:40.740Z,62.77
2023-03-11T17:21:10.181Z,62.05
2023-03-11T17:23:37.055Z,62.57
2023-03-11T17:26:07.738Z,63.47
2023-03-11T17:28:35.042Z,63.58
2023-03-11T17:31:02.139Z,64.07
2023-03-11T17:33:29.541Z,65.23
2023-03-11T17:36:03.016Z,65.27
2023-03-11T17:38:29.769Z,63.57
2023-03-11T17:40:57.035Z,61.94
2023-03-11T17:43:23.933Z,62.96
2023-03-11T17:45:51.268Z,63.05
2023-03-11T17:48:17.955Z,64.14
2023-03-11T17:50:44.597Z,61.77
2023-03-11T17:53:11.566Z,62.56
2023-03-11T17:55:40.646Z,63.98
2023-03-11T17:58:07.465Z,67.31
2023-03-11T18:00:34.201Z,66.95
2023-03-11T18:03:01.554Z,66.26
2023-03-11T18:05:28.507Z,64.85
2023-03-11T18:07:56.383Z,65.78
2023-03-11T18:10:23.553Z,63.84
2023-03-11T18:12:50.667Z,65.73
2023-03-11T18:15:23.447Z,65.20
2023-03-11T18:17:50.150Z,65.10
2023-03-11T18:20:18.603Z,66.08
2023-03-11T18:22:46.677Z,67.38
2023-03-11T18:25:13.871Z,67.52
2023-03-11T18:27:41.169Z,65.53
2023-03-11T18:30:08.817Z,66.17
2023-03-11T18:32:38.338Z,66.81
2023-03-11T18:35:06.530Z,66.58
2023-03-11T18:37:34.122Z,63.99
2023-03-11T18:40:00.639Z,64.70
2023-03-11T18:42:27.273Z,64.21
2023-03-11T18:44:54.342Z,65.30
2023-03-11T18:47:22.261Z,65.74
2023-03-11T18:49:50.207Z,65.47
2023-03-11T18:52:17.087Z,64.85
2023-03-11T18:54:44.576Z,65.98
2023-03-11T18:57:11.622Z,64.88
2023-03-11T18:59:38.474Z,63.65
2023-03-11T19:02:05.442Z,64.04
2023-03-11T19:04:33.098Z,64.02
2023-03-11T19:07:01.159Z,65.00
2023-03-11T19:09:27.751Z,66.45
2023-03-11T19:11:54.518Z,65.51
2023-03-11T19:14:21.724Z,65.46
2023-03-11T19:16:49.642Z,65.32
2023-03-11T19:19:16.556Z,66.38
2023-03-11T19:21:44.202Z,65.26
2023-03-11T19:24:10.804Z,65.80
2023-03-11T19:26:46.602Z,63.39
2023-03-11T19:29:14.054Z,67.38
2023-03-11T19:31:41.090Z,71.27
2023-03-11T19:34:07.818Z,69.57
2023-03-11T19:36:35.186Z,67.60
2023-03-11T19:39:01.772Z,67.28
2023-03-11T19:41:29.233Z,67.54
2023-03-11T19:43:55.819Z,66.54
2023-03-11T19:46:23.723Z,65.51
2023-03-11T19:48:50.771Z,65.29
2023-03-11T19:51:17.594Z,65.15
2023-03-11T19:53:44.267Z,66.69
2023-03-11T19:56:10.895Z,67.07
2023-03-11T19:58:37.979Z,66.17
2023-03-11T20:01:04.620Z,66.66
2023-03-11T20:03:32.369Z,71.81
2023-03-11T20:06:03.695Z,73.87
2023-03-11T20:08:30.719Z,73.64
2023-03-11T20:11:00.770Z,71.66
2023-03-11T20:13:27.360Z,69.60
2023-03-11T20:15:54.789Z,68.48
2023-03-11T20:18:21.330Z,68.84
2023-03-11T20:20:47.822Z,69.88
2023-03-11T20:23:14.777Z,68.46
2023-03-11T20:25:42.499Z,68.18
2023-03-11T20:28:09.716Z,70.27
2023-03-11T20:30:37.797Z,69.14
2023-03-11T20:33:04.369Z,67.84
2023-03-11T20:35:31.754Z,69.83
2023-03-11T20:37:59.849Z,67.46
2023-03-11T20:40:26.863Z,66.67
2023-03-11T20:42:53.726Z,64.68
2023-03-11T20:45:21.879Z,66.54
2023-03-11T20:47:49.224Z,66.04
2023-03-11T20:50:16.182Z,66.71
2023-03-11T20:52:43.278Z,69.10
2023-03-11T20:55:10.793Z,70.56
2023-03-11T20:57:38.072Z,72.28
2023-03-11T21:00:09.271Z,74.66
2023-03-11T21:02:36.928Z,74.99
2023-03-11T21:05:03.852Z,77.45
2023-03-11T21:07:30.926Z,75.28
2023-03-11T21:09:58.107Z,72.64
2023-03-11T21:12:24.734Z,72.66
2023-03-11T21:14:51.362Z,72.39
2023-03-11T21:17:18.227Z,69.65
2023-03-11T21:19:45.180Z,72.93
2023-03-11T21:22:12.286Z,73.41
2023-03-11T21:24:39.355Z,73.60
2023-03-11T21:27:06.542Z,71.76
2023-03-11T21:29:33.542Z,68.49
2023-03-11T21:32:00.350Z,70.99
2023-03-11T21:34:27.447Z,67.88
2023-03-11T21:36:54.517Z,66.77
2023-03-11T21:39:21.806Z,66.83
2023-03-11T21:41:49.134Z,66.49
2023-03-11T21:44:15.742Z,67.02
2023-03-11T21:46:42.950Z,70.05
2023-03-11T21:49:09.516Z,67.65
2023-03-11T21:51:36.031Z,68.08
2023-03-11T21:54:03.639Z,67.74
2023-03-11T21:56:30.757Z,68.00
2023-03-11T21:58:57.908Z,67.10
2023-03-11T22:01:25.182Z,67.02
2023-03-11T22:03:52.221Z,65.73
2023-03-11T22:06:19.134Z,67.46
2023-03-11T22:08:46.247Z,66.59
2023-03-11T22:11:17.979Z,67.98
2023-03-11T22:13:50.295Z,68.22
2023-03-11T22:16:17.846Z,66.65
2023-03-11T22:18:47.777Z,67.63
2023-03-11T22:21:17.783Z,68.90
2023-03-11T22:23:44.708Z,68.90
2023-03-11T22:26:11.219Z,68.83
2023-03-11T22:28:37.739Z,69.19
2023-03-11T22:31:11.748Z,69.17
2023-03-11T22:33:38.064Z,68.60
2023-03-11T22:36:04.986Z,69.50
2023-03-11T22:38:32.031Z,70.01
2023-03-11T22:41:00.277Z,70.09
2023-03-11T22:43:27.396Z,69.29
2023-03-11T22:45:53.952Z,69.77
2023-03-11T22:48:21.356Z,69.84
2023-03-11T22:50:48.461Z,69.21
2023-03-11T22:53:17.293Z,71.82
2023-03-11T22:55:44.649Z,74.70
2023-03-11T22:58:13.245Z,71.46
2023-03-11T23:00:40.248Z,69.54
2023-03-11T23:03:07.355Z,71.65
2023-03-11T23:05:40.672Z,70.07
2023-03-11T23:08:08.452Z,68.49
2023-03-11T23:10:44.902Z,71.21
2023-03-11T23:13:12.130Z,69.61
2023-03-11T23:15:42.787Z,66.62
2023-03-11T23:18:09.986Z,66.28
2023-03-11T23:20:37.447Z,65.63
2023-03-11T23:23:04.836Z,64.87
2023-03-11T23:25:32.800Z,67.63
2023-03-11T23:28:01.205Z,66.51
2023-03-11T23:30:28.232Z,65.88
2023-03-11T23:32:55.068Z,67.80
2023-03-11T23:35:21.983Z,67.25
2023-03-11T23:37:50.589Z,67.36
2023-03-11T23:40:17.756Z,66.12
2023-03-11T23:42:44.661Z,70.25
2023-03-11T23:45:11.699Z,68.84
2023-03-11T23:47:39.434Z,67.69
2023-03-11T23:50:07.813Z,67.23
2023-03-11T23:52:34.649Z,67.37
2023-03-11T23:55:01.654Z,66.99
2023-03-11T23:57:28.732Z,67.13
2023-03-11T23:59:55.359Z,67.41
